createdAt,value
2019-02-19T00:00:08.328Z,99.99
2019-02-19T00:01:08.311Z,99.99
2019-02-19T00:02:08.273Z,99.99
2019-02-19T00:03:08.289Z,99.99
2019-02-19T00:04:08.263Z,99.99
2019-02-19T00:05:08.269Z,99.99
2019-02-19T00:06:08.236Z,99.72
2019-02-19T00:07:08.231Z,99.08
2019-02-19T00:08:08.443Z,98.71
2019-02-19T00:09:08.202Z,98.07
2019-02-19T00:10:08.203Z,98.49
2019-02-19T00:11:08.182Z,98.39
2019-02-19T00:12:08.169Z,97.65
2019-02-19T00:13:08.161Z,98.12
2019-02-19T00:14:08.180Z,98.71
2019-02-19T00:15:08.696Z,99.55
2019-02-19T00:16:08.171Z,99.66
2019-02-19T00:17:08.119Z,99.87
2019-02-19T00:18:08.118Z,99.99
2019-02-19T00:19:08.112Z,99.99
2019-02-19T00:20:08.094Z,99.99
2019-02-19T00:21:08.120Z,99.99
2019-02-19T00:22:08.074Z,99.99
2019-02-19T00:23:08.069Z,99.99
2019-02-19T00:24:08.063Z,99.99
2019-02-19T00:25:08.048Z,99.99
2019-02-19T00:26:08.040Z,99.99
2019-02-19T00:27:08.047Z,99.99
2019-02-19T00:28:08.015Z,99.99
2019-02-19T00:29:07.999Z,99.99
2019-02-19T00:30:07.989Z,99.99
2019-02-19T00:31:07.987Z,99.99
2019-02-19T00:32:08.007Z,99.99
2019-02-19T00:33:07.966Z,99.99
2019-02-19T00:34:07.950Z,99.99
2019-02-19T00:35:07.950Z,99.87
2019-02-19T00:36:07.937Z,99.87
2019-02-19T00:37:07.948Z,99.87
2019-02-19T00:38:07.911Z,99.76
2019-02-19T00:39:07.907Z,99.87
2019-02-19T00:40:07.902Z,99.99
2019-02-19T00:41:07.890Z,99.99
2019-02-19T00:42:07.908Z,99.99
2019-02-19T00:43:07.888Z,99.99
2019-02-19T00:44:07.855Z,99.99
2019-02-19T00:45:16.272Z,99.99
2019-02-19T00:46:08.830Z,99.99
2019-02-19T00:47:07.849Z,99.99
2019-02-19T00:48:07.816Z,99.99
2019-02-19T00:49:07.807Z,99.99
2019-02-19T00:50:07.795Z,99.99
2019-02-19T00:51:07.790Z,99.99
2019-02-19T00:52:07.769Z,99.99
2019-02-19T00:53:07.788Z,99.99
2019-02-19T00:54:07.747Z,99.99
2019-02-19T00:55:07.740Z,99.87
2019-02-19T00:56:07.735Z,99.99
2019-02-19T00:57:07.730Z,99.99
2019-02-19T00:58:07.720Z,99.99
2019-02-19T00:59:07.726Z,99.99
2019-02-19T01:00:07.694Z,99.87
2019-02-19T01:01:07.678Z,99.87
2019-02-19T01:02:07.700Z,99.76
2019-02-19T01:03:07.666Z,99.76
2019-02-19T01:04:07.652Z,99.99
2019-02-19T01:05:07.646Z,99.99
2019-02-19T01:06:07.636Z,99.99
2019-02-19T01:07:07.658Z,99.99
2019-02-19T01:08:07.618Z,99.99
2019-02-19T01:09:07.614Z,99.99
2019-02-19T01:10:07.593Z,99.99
2019-02-19T01:11:07.584Z,99.76
2019-02-19T01:12:07.608Z,99.75
2019-02-19T01:13:07.563Z,99.01
2019-02-19T01:14:07.553Z,99.22
2019-02-19T01:15:07.547Z,99.22
2019-02-19T01:16:07.539Z,97.74
2019-02-19T01:17:07.557Z,97.36
2019-02-19T01:18:07.517Z,97.25
2019-02-19T01:19:07.519Z,98.10
2019-02-19T01:20:07.496Z,99.91
2019-02-19T01:21:07.480Z,99.99
2019-02-19T01:22:07.522Z,99.99
2019-02-19T01:23:07.519Z,99.99
2019-02-19T01:24:07.453Z,99.99
2019-02-19T01:25:07.446Z,99.99
2019-02-19T01:26:07.441Z,99.99
2019-02-19T01:27:07.416Z,99.99
2019-02-19T01:28:07.413Z,99.99
2019-02-19T01:29:07.427Z,99.99
2019-02-19T01:30:07.393Z,99.99
2019-02-19T01:31:07.383Z,99.99
2019-02-19T01:32:07.422Z,99.99
2019-02-19T01:33:07.359Z,99.99
2019-02-19T01:34:07.353Z,99.99
2019-02-19T01:35:07.369Z,99.99
2019-02-19T01:36:07.332Z,99.99
2019-02-19T01:37:07.322Z,99.99
2019-02-19T01:38:07.352Z,99.99
2019-02-19T01:39:07.359Z,99.99
2019-02-19T01:40:07.289Z,99.99
2019-02-19T01:41:07.296Z,99.99
2019-02-19T01:42:07.283Z,99.99
2019-02-19T01:43:07.983Z,99.99
2019-02-19T01:44:07.274Z,99.99
2019-02-19T01:45:07.263Z,99.99
2019-02-19T01:46:07.237Z,99.99
2019-02-19T01:47:07.249Z,99.99
2019-02-19T01:48:07.215Z,99.99
2019-02-19T01:49:07.231Z,99.99
2019-02-19T01:50:07.197Z,99.96
2019-02-19T01:51:07.180Z,99.85
2019-02-19T01:52:07.177Z,99.54
2019-02-19T01:53:07.187Z,99.26
2019-02-19T01:54:07.149Z,99.37
2019-02-19T01:55:07.150Z,99.31
2019-02-19T01:56:07.132Z,99.16
2019-02-19T01:57:07.123Z,99.16
2019-02-19T01:58:07.191Z,99.16
2019-02-19T01:59:07.114Z,99.69
2019-02-19T02:00:07.089Z,99.26
2019-02-19T02:01:07.114Z,99.99
2019-02-19T02:02:07.174Z,99.99
2019-02-19T02:03:07.094Z,99.99
2019-02-19T02:04:07.063Z,99.99
2019-02-19T02:05:07.053Z,99.99
2019-02-19T02:06:07.037Z,99.99
2019-02-19T02:07:07.027Z,99.99
2019-02-19T02:08:07.040Z,99.99
2019-02-19T02:09:07.010Z,99.99
2019-02-19T02:10:07.016Z,99.85
2019-02-19T02:11:06.984Z,99.26
2019-02-19T02:12:06.976Z,99.58
2019-02-19T02:13:06.997Z,98.94
2019-02-19T02:14:06.968Z,99.48
2019-02-19T02:15:06.984Z,99.48
2019-02-19T02:16:06.932Z,99.58
2019-02-19T02:17:06.927Z,99.75
2019-02-19T02:18:07.010Z,99.99
2019-02-19T02:19:06.905Z,99.99
2019-02-19T02:20:06.924Z,99.99
2019-02-19T02:21:06.886Z,99.99
2019-02-19T02:22:06.881Z,99.85
2019-02-19T02:23:06.866Z,99.64
2019-02-19T02:24:06.859Z,99.99
2019-02-19T02:25:06.883Z,99.99
2019-02-19T02:26:06.834Z,99.90
2019-02-19T02:27:06.862Z,99.79
2019-02-19T02:28:06.827Z,99.99
2019-02-19T02:29:06.803Z,99.90
2019-02-19T02:30:06.801Z,99.99
2019-02-19T02:31:06.828Z,99.90
2019-02-19T02:32:06.786Z,99.58
2019-02-19T02:33:06.774Z,99.90
2019-02-19T02:34:06.762Z,99.99
2019-02-19T02:35:06.755Z,99.99
2019-02-19T02:36:06.742Z,99.99
2019-02-19T02:37:06.771Z,99.90
2019-02-19T02:38:06.718Z,99.69
2019-02-19T02:39:06.710Z,99.90
2019-02-19T02:40:06.723Z,99.99
2019-02-19T02:41:06.690Z,99.99
2019-02-19T02:42:06.683Z,99.99
2019-02-19T02:43:06.676Z,99.99
2019-02-19T02:44:06.687Z,99.99
2019-02-19T02:45:06.659Z,99.99
2019-02-19T02:46:06.638Z,99.99
2019-02-19T02:47:06.643Z,99.99
2019-02-19T02:48:06.753Z,99.99
2019-02-19T02:49:06.612Z,99.99
2019-02-19T02:50:06.604Z,99.99
2019-02-19T02:51:06.601Z,99.99
2019-02-19T02:52:06.580Z,99.91
2019-02-19T02:53:06.573Z,99.80
2019-02-19T02:54:06.606Z,99.54
2019-02-19T02:55:06.556Z,99.05
2019-02-19T02:56:06.538Z,99.05
2019-02-19T02:57:06.545Z,98.94
2019-02-19T02:58:06.520Z,99.20
2019-02-19T02:59:06.540Z,99.69
2019-02-19T03:00:06.505Z,99.99
2019-02-19T03:01:06.491Z,99.99
2019-02-19T03:02:06.483Z,99.99
2019-02-19T03:03:06.474Z,99.99
2019-02-19T03:04:06.495Z,99.99
2019-02-19T03:05:06.451Z,99.99
2019-02-19T03:06:06.443Z,99.99
2019-02-19T03:07:06.431Z,99.99
2019-02-19T03:08:06.422Z,99.99
2019-02-19T03:09:06.443Z,99.99
2019-02-19T03:10:06.401Z,99.99
2019-02-19T03:11:06.639Z,99.99
2019-02-19T03:12:06.567Z,99.99
2019-02-19T03:13:06.593Z,99.99
2019-02-19T03:14:06.789Z,99.96
2019-02-19T03:15:06.600Z,99.99
2019-02-19T03:16:06.575Z,99.79
2019-02-19T03:17:06.594Z,99.90
2019-02-19T03:18:06.581Z,99.99
2019-02-19T03:19:06.822Z,99.90
2019-02-19T03:20:06.527Z,99.99
2019-02-19T03:21:06.558Z,99.99
2019-02-19T03:22:06.764Z,99.99
2019-02-19T03:23:06.545Z,99.99
2019-02-19T03:24:06.496Z,99.99
2019-02-19T03:25:06.547Z,99.99
2019-02-19T03:26:06.544Z,99.99
2019-02-19T03:27:06.509Z,99.99
2019-02-19T03:28:06.752Z,99.58
2019-02-19T03:29:06.453Z,98.94
2019-02-19T03:30:06.430Z,98.25
2019-02-19T03:31:06.493Z,97.66
2019-02-19T03:32:06.820Z,98.19
2019-02-19T03:33:06.434Z,97.45
2019-02-19T03:34:06.404Z,97.55
2019-02-19T03:35:06.355Z,97.45
2019-02-19T03:36:06.342Z,98.02
2019-02-19T03:37:06.386Z,99.04
2019-02-19T03:38:06.573Z,99.35
2019-02-19T03:39:06.383Z,99.99
2019-02-19T03:40:07.664Z,99.99
2019-02-19T03:41:06.342Z,99.99
2019-02-19T03:42:06.541Z,99.99
2019-02-19T03:43:06.518Z,99.99
2019-02-19T03:44:06.968Z,99.99
2019-02-19T03:45:06.364Z,99.99
2019-02-19T03:46:12.161Z,99.95
2019-02-19T03:47:07.303Z,99.99
2019-02-19T03:48:06.526Z,99.41
2019-02-19T03:49:06.274Z,99.31
2019-02-19T03:50:06.263Z,99.25
2019-02-19T03:51:06.249Z,99.14
2019-02-19T03:52:15.797Z,99.46
2019-02-19T03:53:06.539Z,99.99
2019-02-19T03:54:06.287Z,99.90
2019-02-19T03:55:06.232Z,99.99
2019-02-19T03:56:06.740Z,99.84
2019-02-19T03:57:06.217Z,99.84
2019-02-19T03:58:06.401Z,99.99
2019-02-19T03:59:06.153Z,99.99
2019-02-19T04:00:06.186Z,99.99
2019-02-19T04:01:06.167Z,99.99
2019-02-19T04:02:06.162Z,99.99
2019-02-19T04:03:06.367Z,99.99
2019-02-19T04:04:06.084Z,99.99
2019-02-19T04:05:06.111Z,99.99
2019-02-19T04:06:06.096Z,99.99
2019-02-19T04:07:06.085Z,99.99
2019-02-19T04:08:06.078Z,99.99
2019-02-19T04:09:06.320Z,99.99
2019-02-19T04:10:06.084Z,99.99
2019-02-19T04:11:06.040Z,99.99
2019-02-19T04:12:06.048Z,99.52
2019-02-19T04:13:06.065Z,99.67
2019-02-19T04:14:06.277Z,99.14
2019-02-19T04:15:14.269Z,98.30
2019-02-19T04:16:06.006Z,98.30
2019-02-19T04:17:06.007Z,98.34
2019-02-19T04:18:05.975Z,98.55
2019-02-19T04:19:06.210Z,98.30
2019-02-19T04:20:05.983Z,99.40
2019-02-19T04:21:05.978Z,99.14
2019-02-19T04:22:05.926Z,99.61
2019-02-19T04:23:05.954Z,99.57
2019-02-19T04:24:06.193Z,99.99
2019-02-19T04:25:05.917Z,99.99
2019-02-19T04:26:05.881Z,99.88
2019-02-19T04:27:05.877Z,99.99
2019-02-19T04:28:05.911Z,99.99
2019-02-19T04:29:06.138Z,99.99
2019-02-19T04:30:05.874Z,99.88
2019-02-19T04:31:05.888Z,99.57
2019-02-19T04:32:05.886Z,98.93
2019-02-19T04:33:05.821Z,99.08
2019-02-19T04:34:05.841Z,98.44
2019-02-19T04:35:05.672Z,97.85
2019-02-19T04:36:05.605Z,97.75
2019-02-19T04:37:05.583Z,97.96
2019-02-19T04:38:05.565Z,96.94
2019-02-19T04:39:05.648Z,96.31
2019-02-19T04:40:05.549Z,97.26
2019-02-19T04:41:05.528Z,97.69
2019-02-19T04:42:05.517Z,98.28
2019-02-19T04:43:05.523Z,99.55
2019-02-19T04:44:05.521Z,99.82
2019-02-19T04:45:05.563Z,99.71
2019-02-19T04:46:05.489Z,99.99
2019-02-19T04:47:05.470Z,99.99
2019-02-19T04:48:05.465Z,99.71
2019-02-19T04:49:05.570Z,99.71
2019-02-19T04:50:05.453Z,99.61
2019-02-19T04:51:05.448Z,99.61
2019-02-19T04:52:05.431Z,99.71
2019-02-19T04:53:05.408Z,99.61
2019-02-19T04:54:05.706Z,99.19
2019-02-19T04:55:05.405Z,99.19
2019-02-19T04:56:05.396Z,98.24
2019-02-19T04:57:05.366Z,98.38
2019-02-19T04:58:05.362Z,98.44
2019-02-19T04:59:05.444Z,99.40
2019-02-19T05:00:05.336Z,98.97
2019-02-19T05:01:05.335Z,99.40
2019-02-19T05:02:05.338Z,99.13
2019-02-19T05:03:05.311Z,98.49
2019-02-19T05:04:05.403Z,97.90
2019-02-19T05:05:05.286Z,97.58
2019-02-19T05:06:05.296Z,96.31
2019-02-19T05:07:05.268Z,96.88
2019-02-19T05:08:05.255Z,96.03
2019-02-19T05:09:05.245Z,97.09
2019-02-19T05:10:05.323Z,96.35
2019-02-19T05:11:05.211Z,96.98
2019-02-19T05:12:05.193Z,96.88
2019-02-19T05:13:05.206Z,96.46
2019-02-19T05:14:05.180Z,97.41
2019-02-19T05:15:05.183Z,98.43
2019-02-19T05:16:05.225Z,98.85
2019-02-19T05:17:05.153Z,99.55
2019-02-19T05:18:05.148Z,99.76
2019-02-19T05:19:05.123Z,99.99
2019-02-19T05:20:05.157Z,99.99
2019-02-19T05:21:05.113Z,99.99
2019-02-19T05:22:05.092Z,99.99
2019-02-19T05:23:07.412Z,99.99
2019-02-19T05:24:05.077Z,99.99
2019-02-19T05:25:05.096Z,99.99
2019-02-19T05:26:05.048Z,99.99
2019-02-19T05:27:05.040Z,99.99
2019-02-19T05:28:05.037Z,99.99
2019-02-19T05:29:05.038Z,99.99
2019-02-19T05:30:05.042Z,99.99
2019-02-19T05:31:05.013Z,99.99
2019-02-19T05:32:04.987Z,99.99
2019-02-19T05:33:04.991Z,99.99
2019-02-19T05:34:04.964Z,99.71
2019-02-19T05:35:04.980Z,99.61
2019-02-19T05:36:04.942Z,99.46
2019-02-19T05:37:04.964Z,99.99
2019-02-19T05:38:04.925Z,99.99
2019-02-19T05:39:04.919Z,99.99
2019-02-19T05:40:04.947Z,99.99
2019-02-19T05:41:04.896Z,99.99
2019-02-19T05:42:04.890Z,99.99
2019-02-19T05:43:04.874Z,99.99
2019-02-19T05:44:05.515Z,99.99
2019-02-19T05:45:04.886Z,99.99
2019-02-19T05:46:04.843Z,99.99
2019-02-19T05:47:04.834Z,99.99
2019-02-19T05:48:05.373Z,99.99
2019-02-19T05:49:04.834Z,99.99
2019-02-19T05:50:04.803Z,99.85
2019-02-19T05:51:04.805Z,99.99
2019-02-19T05:52:04.792Z,99.90
2019-02-19T05:53:04.806Z,99.48
2019-02-19T05:54:04.765Z,99.05
2019-02-19T05:55:04.779Z,98.99
2019-02-19T05:56:04.746Z,98.14
2019-02-19T05:57:04.744Z,98.99
2019-02-19T05:58:04.731Z,99.99
2019-02-19T05:59:04.729Z,99.99
2019-02-19T06:00:04.748Z,99.99
2019-02-19T06:01:04.694Z,99.99
2019-02-19T06:02:04.710Z,99.99
2019-02-19T06:03:04.697Z,99.99
2019-02-19T06:04:04.684Z,99.99
2019-02-19T06:05:05.884Z,99.99
2019-02-19T06:06:04.655Z,99.99
2019-02-19T06:07:04.633Z,99.99
2019-02-19T06:08:04.622Z,99.99
2019-02-19T06:09:04.613Z,99.99
2019-02-19T06:10:04.636Z,99.99
2019-02-19T06:11:04.596Z,99.99
2019-02-19T06:12:04.586Z,99.96
2019-02-19T06:13:04.590Z,99.54
2019-02-19T06:14:04.565Z,99.16
2019-02-19T06:15:04.589Z,98.31
2019-02-19T06:16:04.555Z,97.89
2019-02-19T06:17:04.552Z,97.30
2019-02-19T06:18:04.545Z,97.30
2019-02-19T06:19:04.514Z,97.93
2019-02-19T06:20:04.547Z,97.13
2019-02-19T06:21:04.511Z,97.55
2019-02-19T06:22:04.486Z,97.51
2019-02-19T06:23:04.485Z,98.25
2019-02-19T06:24:04.467Z,99.10
2019-02-19T06:25:04.457Z,99.16
2019-02-19T06:26:04.481Z,99.05
2019-02-19T06:27:04.439Z,99.16
2019-02-19T06:28:04.427Z,99.58
2019-02-19T06:29:04.417Z,99.96
2019-02-19T06:30:04.433Z,99.99
2019-02-19T06:31:04.450Z,99.85
2019-02-19T06:32:04.393Z,99.96
2019-02-19T06:33:04.377Z,99.96
2019-02-19T06:34:04.383Z,99.91
2019-02-19T06:35:04.371Z,99.99
2019-02-19T06:36:04.409Z,99.87
2019-02-19T06:37:04.343Z,99.60
2019-02-19T06:38:04.330Z,99.49
2019-02-19T06:39:04.323Z,99.07
2019-02-19T06:40:04.392Z,99.07
2019-02-19T06:41:04.334Z,97.59
2019-02-19T06:42:04.289Z,97.17
2019-02-19T06:43:04.278Z,97.42
2019-02-19T06:44:04.304Z,97.38
2019-02-19T06:45:04.275Z,97.21
2019-02-19T06:46:04.275Z,96.79
2019-02-19T06:47:06.943Z,96.85
2019-02-19T06:48:04.240Z,96.58
2019-02-19T06:49:04.221Z,97.00
2019-02-19T06:50:04.205Z,96.00
2019-02-19T06:51:04.227Z,96.22
2019-02-19T06:52:04.188Z,96.22
2019-02-19T06:53:04.177Z,95.79
2019-02-19T06:54:04.163Z,95.69
2019-02-19T06:55:04.162Z,95.69
2019-02-19T06:56:06.477Z,96.11
2019-02-19T06:57:04.147Z,96.00
2019-02-19T06:58:04.131Z,96.11
2019-02-19T06:59:04.132Z,95.69
2019-02-19T07:00:04.119Z,95.16
2019-02-19T07:01:06.117Z,95.22
2019-02-19T07:02:12.250Z,96.07
2019-02-19T07:03:04.076Z,95.86
2019-02-19T07:04:04.070Z,96.45
2019-02-19T07:05:04.080Z,95.98
2019-02-19T07:06:04.095Z,96.15
2019-02-19T07:07:04.032Z,96.73
2019-02-19T07:08:04.024Z,95.53
2019-02-19T07:09:04.014Z,94.48
2019-02-19T07:10:04.008Z,94.54
2019-02-19T07:11:04.022Z,94.08
2019-02-19T07:12:04.019Z,94.29
2019-02-19T07:13:03.986Z,94.35
2019-02-19T07:14:03.986Z,92.94
2019-02-19T07:15:03.962Z,92.94
2019-02-19T07:16:03.967Z,91.22
2019-02-19T07:17:03.959Z,91.64
2019-02-19T07:18:03.960Z,91.01
2019-02-19T07:19:03.927Z,90.97
2019-02-19T07:20:03.911Z,91.24
2019-02-19T07:21:03.925Z,89.31
2019-02-19T07:22:03.896Z,89.00
2019-02-19T07:23:04.523Z,88.89
2019-02-19T07:24:04.655Z,88.64
2019-02-19T07:25:03.855Z,88.29
2019-02-19T07:26:03.876Z,87.83
2019-02-19T07:27:03.842Z,89.04
2019-02-19T07:28:03.827Z,87.89
2019-02-19T07:29:03.820Z,87.74
2019-02-19T07:30:03.807Z,87.60
2019-02-19T07:31:03.833Z,87.50
2019-02-19T07:32:03.810Z,86.87
2019-02-19T07:33:03.785Z,87.66
2019-02-19T07:34:03.769Z,87.00
2019-02-19T07:35:03.771Z,86.54
2019-02-19T07:36:03.787Z,86.02
2019-02-19T07:37:03.742Z,86.54
2019-02-19T07:38:03.730Z,85.29
2019-02-19T07:39:03.716Z,84.77
2019-02-19T07:40:03.719Z,85.08
2019-02-19T07:41:03.730Z,85.18
2019-02-19T07:42:03.694Z,85.81
2019-02-19T07:43:03.684Z,85.50
2019-02-19T07:44:03.671Z,85.50
2019-02-19T07:45:03.657Z,85.46
2019-02-19T07:46:03.667Z,85.46
2019-02-19T07:47:03.666Z,85.59
2019-02-19T07:48:03.656Z,85.03
2019-02-19T07:49:03.652Z,83.63
2019-02-19T07:50:03.610Z,83.84
2019-02-19T07:51:03.613Z,83.28
2019-02-19T07:52:03.634Z,84.50
2019-02-19T07:53:03.574Z,81.65
2019-02-19T07:54:03.599Z,81.23
2019-02-19T07:55:03.563Z,80.98
2019-02-19T07:56:03.556Z,81.29
2019-02-19T07:57:03.531Z,83.03
2019-02-19T07:58:03.523Z,79.76
2019-02-19T07:59:03.525Z,79.87
2019-02-19T08:00:03.547Z,79.94
2019-02-19T08:01:03.503Z,79.45
2019-02-19T08:02:03.482Z,80.29
2019-02-19T08:03:04.997Z,79.97
2019-02-19T08:04:03.465Z,80.04
2019-02-19T08:05:03.457Z,80.46
2019-02-19T08:06:03.526Z,79.97
2019-02-19T08:07:03.466Z,79.55
2019-02-19T08:08:03.424Z,78.68
2019-02-19T08:09:03.406Z,79.83
2019-02-19T08:10:03.407Z,78.99
2019-02-19T08:11:03.387Z,78.86
2019-02-19T08:12:03.418Z,78.55
2019-02-19T08:13:03.367Z,77.30
2019-02-19T08:14:03.391Z,77.33
2019-02-19T08:15:03.352Z,78.23
2019-02-19T08:16:03.337Z,79.17
2019-02-19T08:17:03.333Z,78.55
2019-02-19T08:18:03.312Z,77.99
2019-02-19T08:19:03.335Z,77.85
2019-02-19T08:20:03.302Z,76.88
2019-02-19T08:21:03.329Z,75.53
2019-02-19T08:22:03.283Z,75.95
2019-02-19T08:23:03.264Z,76.05
2019-02-19T08:24:03.271Z,75.88
2019-02-19T08:25:03.251Z,75.53
2019-02-19T08:26:03.241Z,74.98
2019-02-19T08:27:03.268Z,76.91
2019-02-19T08:28:03.215Z,74.91
2019-02-19T08:29:13.226Z,75.12
2019-02-19T08:30:04.201Z,74.57
2019-02-19T08:31:03.187Z,74.77
2019-02-19T08:32:03.201Z,73.71
2019-02-19T08:33:03.162Z,73.08
2019-02-19T08:34:03.154Z,73.60
2019-02-19T08:35:03.147Z,74.67
2019-02-19T08:36:03.133Z,73.71
2019-02-19T08:37:03.148Z,73.98
2019-02-19T08:38:03.114Z,70.06
2019-02-19T08:39:03.100Z,73.12
2019-02-19T08:40:03.094Z,72.27
2019-02-19T08:41:03.089Z,71.61
2019-02-19T08:42:03.106Z,71.10
2019-02-19T08:43:03.068Z,71.58
2019-02-19T08:44:03.085Z,70.00
2019-02-19T08:45:03.088Z,68.05
2019-02-19T08:46:03.027Z,69.59
2019-02-19T08:47:03.026Z,70.18
2019-02-19T08:48:03.010Z,69.84
2019-02-19T08:49:02.991Z,68.29
2019-02-19T08:50:02.983Z,67.82
2019-02-19T08:51:03.006Z,68.40
2019-02-19T08:52:02.971Z,66.07
2019-02-19T08:53:02.951Z,66.17
2019-02-19T08:54:02.949Z,65.59
2019-02-19T08:55:02.970Z,66.24
2019-02-19T08:56:02.961Z,66.75
2019-02-19T08:57:02.947Z,69.84
2019-02-19T08:58:02.898Z,68.88
2019-02-19T08:59:02.898Z,68.61
2019-02-19T09:00:02.887Z,67.93
2019-02-19T09:01:02.884Z,65.95
2019-02-19T09:02:02.901Z,65.58
2019-02-19T09:03:02.858Z,63.84
2019-02-19T09:04:02.862Z,62.48
2019-02-19T09:05:02.832Z,63.60
2019-02-19T09:06:03.027Z,63.17
2019-02-19T09:07:02.804Z,59.89
2019-02-19T09:08:02.806Z,61.50
2019-02-19T09:09:02.800Z,60.06
2019-02-19T09:10:02.812Z,59.89
2019-02-19T09:11:02.772Z,61.15
2019-02-19T09:12:02.783Z,62.85
2019-02-19T09:13:02.743Z,63.95
2019-02-19T09:14:02.773Z,62.59
2019-02-19T09:15:02.729Z,61.16
2019-02-19T09:16:02.712Z,62.46
2019-02-19T09:17:02.722Z,62.66
2019-02-19T09:18:02.724Z,60.39
2019-02-19T09:19:02.681Z,60.85
2019-02-19T09:20:02.664Z,59.72
2019-02-19T09:21:02.670Z,61.35
2019-02-19T09:22:02.648Z,59.03
2019-02-19T09:23:02.664Z,59.09
2019-02-19T09:24:09.173Z,60.06
2019-02-19T09:25:03.611Z,60.84
2019-02-19T09:26:02.612Z,60.94
2019-02-19T09:27:02.595Z,62.58
2019-02-19T09:28:02.618Z,61.32
2019-02-19T09:29:02.574Z,60.60
2019-02-19T09:30:02.572Z,61.22
2019-02-19T09:31:02.549Z,60.91
2019-02-19T09:32:02.546Z,59.89
2019-02-19T09:33:02.567Z,59.25
2019-02-19T09:34:02.523Z,59.45
2019-02-19T09:35:02.509Z,60.14
2019-02-19T09:36:02.503Z,59.22
2019-02-19T09:37:02.484Z,57.79
2019-02-19T09:38:02.529Z,58.20
2019-02-19T09:39:02.477Z,57.99
2019-02-19T09:40:02.464Z,57.99
2019-02-19T09:41:02.443Z,57.76
2019-02-19T09:42:02.440Z,58.09
2019-02-19T09:43:02.453Z,57.04
2019-02-19T09:44:02.447Z,56.63
2019-02-19T09:45:02.406Z,57.35
2019-02-19T09:46:02.399Z,55.69
2019-02-19T09:47:02.393Z,55.23
2019-02-19T09:48:02.460Z,55.33
2019-02-19T09:49:02.361Z,54.41
2019-02-19T09:50:02.375Z,55.30
2019-02-19T09:51:02.341Z,55.33
2019-02-19T09:52:02.331Z,55.69
2019-02-19T09:53:02.343Z,55.28
2019-02-19T09:54:02.423Z,56.33
2019-02-19T09:55:02.295Z,56.81
2019-02-19T09:56:02.295Z,55.13
2019-02-19T09:57:02.284Z,53.44
2019-02-19T09:58:02.304Z,52.76
2019-02-19T09:59:02.255Z,50.57
2019-02-19T10:00:02.248Z,52.15
2019-02-19T10:01:02.242Z,50.74
2019-02-19T10:02:02.244Z,52.88
2019-02-19T10:03:02.258Z,53.44
2019-02-19T10:04:02.250Z,55.33
2019-02-19T10:05:02.200Z,55.69
2019-02-19T10:06:02.214Z,57.07
2019-02-19T10:07:02.184Z,58.94
2019-02-19T10:08:02.794Z,60.60
2019-02-19T10:09:02.200Z,59.48
2019-02-19T10:10:02.199Z,59.14
2019-02-19T10:11:02.129Z,60.03
2019-02-19T10:12:02.136Z,58.89
2019-02-19T10:13:02.142Z,57.02
2019-02-19T10:14:02.108Z,56.99
2019-02-19T10:15:02.105Z,55.36
2019-02-19T10:16:02.078Z,55.63
2019-02-19T10:17:02.064Z,55.28
2019-02-19T10:18:10.044Z,55.05
2019-02-19T10:19:03.045Z,53.22
2019-02-19T10:20:02.038Z,51.35
2019-02-19T10:21:02.024Z,52.07
2019-02-19T10:22:02.016Z,52.35
2019-02-19T10:23:02.022Z,52.98
2019-02-19T10:24:01.993Z,53.96
2019-02-19T10:25:01.992Z,55.15
2019-02-19T10:26:01.973Z,53.22
2019-02-19T10:27:02.065Z,50.92
2019-02-19T10:28:01.982Z,52.30
2019-02-19T10:29:01.935Z,49.51
2019-02-19T10:30:01.957Z,49.08
2019-02-19T10:31:01.924Z,48.85
2019-02-19T10:32:01.907Z,47.30
2019-02-19T10:33:01.892Z,46.29
2019-02-19T10:34:01.891Z,45.36
2019-02-19T10:35:01.875Z,47.91
2019-02-19T10:36:01.916Z,47.08
2019-02-19T10:37:01.860Z,46.67
2019-02-19T10:38:01.844Z,45.37
2019-02-19T10:39:01.828Z,47.00
2019-02-19T10:40:01.855Z,45.98
2019-02-19T10:41:01.811Z,46.90
2019-02-19T10:42:01.798Z,46.29
2019-02-19T10:43:01.814Z,46.49
2019-02-19T10:44:01.779Z,46.47
2019-02-19T10:45:01.767Z,46.45
2019-02-19T10:46:01.757Z,44.70
2019-02-19T10:47:01.741Z,46.19
2019-02-19T10:48:01.731Z,46.51
2019-02-19T10:49:01.762Z,47.22
2019-02-19T10:50:01.707Z,47.13
2019-02-19T10:51:01.930Z,45.48
2019-02-19T10:52:01.690Z,45.98
2019-02-19T10:53:01.684Z,46.19
2019-02-19T10:54:01.678Z,46.86
2019-02-19T10:55:01.673Z,48.90
2019-02-19T10:56:01.665Z,49.00
2019-02-19T10:57:01.671Z,48.82
2019-02-19T10:58:01.625Z,49.61
2019-02-19T10:59:01.617Z,46.33
2019-02-19T11:00:01.621Z,46.51
2019-02-19T11:01:01.601Z,47.75
2019-02-19T11:02:01.622Z,47.55
2019-02-19T11:03:01.569Z,46.66
2019-02-19T11:04:01.565Z,47.39
2019-02-19T11:05:01.554Z,46.68
2019-02-19T11:06:01.698Z,47.47
2019-02-19T11:07:01.536Z,46.76
2019-02-19T11:08:01.518Z,46.84
2019-02-19T11:09:01.507Z,45.70
2019-02-19T11:10:01.503Z,46.92
2019-02-19T11:11:01.491Z,46.67
2019-02-19T11:12:02.281Z,45.36
2019-02-19T11:13:01.509Z,43.81
2019-02-19T11:14:01.453Z,43.84
2019-02-19T11:15:01.446Z,45.07
2019-02-19T11:16:03.317Z,45.07
2019-02-19T11:17:01.433Z,45.07
2019-02-19T11:18:01.410Z,45.28
2019-02-19T11:19:02.907Z,45.07
2019-02-19T11:20:01.404Z,44.97
2019-02-19T11:21:01.921Z,43.75
2019-02-19T11:22:01.373Z,43.73
2019-02-19T11:23:01.365Z,43.61
2019-02-19T11:24:01.376Z,43.49
2019-02-19T11:25:01.337Z,43.65
2019-02-19T11:26:01.326Z,41.91
2019-02-19T11:27:01.316Z,41.18
2019-02-19T11:28:01.304Z,41.26
2019-02-19T11:29:02.127Z,40.25
2019-02-19T11:30:01.285Z,40.33
2019-02-19T11:31:01.268Z,42.07
2019-02-19T11:32:01.263Z,42.52
2019-02-19T11:33:01.257Z,43.59
2019-02-19T11:34:01.274Z,44.52
2019-02-19T11:35:01.240Z,46.65
2019-02-19T11:36:01.230Z,43.71
2019-02-19T11:37:01.204Z,42.54
2019-02-19T11:38:01.204Z,40.17
2019-02-19T11:39:01.222Z,40.13
2019-02-19T11:40:01.181Z,39.40
2019-02-19T11:41:01.177Z,40.11
2019-02-19T11:42:01.163Z,39.73
2019-02-19T11:43:01.147Z,40.11
2019-02-19T11:44:01.319Z,40.59
2019-02-19T11:45:01.121Z,39.87
2019-02-19T11:46:01.111Z,36.81
2019-02-19T11:47:01.111Z,37.85
2019-02-19T11:48:01.090Z,40.01
2019-02-19T11:49:01.114Z,40.73
2019-02-19T11:50:01.078Z,40.44
2019-02-19T11:51:01.063Z,39.69
2019-02-19T11:52:01.053Z,37.11
2019-02-19T11:53:01.035Z,37.49
2019-02-19T11:54:01.070Z,37.24
2019-02-19T11:55:01.097Z,36.67
2019-02-19T11:56:01.006Z,34.61
2019-02-19T11:57:01.003Z,33.36
2019-02-19T11:58:00.998Z,31.70
2019-02-19T11:59:00.975Z,30.46
2019-02-19T12:00:00.970Z,28.75
2019-02-19T12:01:00.986Z,29.84
2019-02-19T12:02:00.984Z,30.60
2019-02-19T12:03:00.931Z,30.61
2019-02-19T12:04:00.923Z,31.12
2019-02-19T12:05:00.908Z,32.84
2019-02-19T12:06:02.680Z,33.83
2019-02-19T12:07:00.885Z,34.86
2019-02-19T12:08:00.882Z,36.80
2019-02-19T12:09:03.042Z,36.84
2019-02-19T12:10:00.861Z,38.39
2019-02-19T12:11:00.847Z,37.06
2019-02-19T12:12:00.830Z,36.35
2019-02-19T12:13:00.832Z,36.30
2019-02-19T12:14:00.815Z,36.72
2019-02-19T12:15:00.832Z,36.54
2019-02-19T12:16:00.800Z,36.22
2019-02-19T12:17:00.788Z,37.46
2019-02-19T12:18:00.773Z,37.26
2019-02-19T12:19:00.794Z,37.98
2019-02-19T12:20:00.747Z,38.91
2019-02-19T12:21:00.746Z,37.58
2019-02-19T12:22:00.771Z,36.24
2019-02-19T12:23:02.713Z,36.76
2019-02-19T12:24:00.720Z,37.56
2019-02-19T12:25:00.700Z,37.49
2019-02-19T12:26:00.688Z,39.09
2019-02-19T12:27:00.676Z,36.77
2019-02-19T12:28:00.664Z,37.96
2019-02-19T12:29:00.695Z,37.21
2019-02-19T12:30:00.675Z,36.70
2019-02-19T12:31:00.631Z,36.25
2019-02-19T12:32:00.621Z,37.48
2019-02-19T12:33:00.613Z,36.59
2019-02-19T12:34:00.612Z,36.94
2019-02-19T12:35:00.594Z,34.67
2019-02-19T12:36:04.489Z,34.56
2019-02-19T12:37:00.574Z,35.38
2019-02-19T12:38:00.555Z,34.34
2019-02-19T12:39:00.593Z,33.40
2019-02-19T12:40:02.413Z,33.67
2019-02-19T12:41:00.526Z,32.54
2019-02-19T12:42:00.519Z,32.46
2019-02-19T12:43:00.503Z,33.51
2019-02-19T12:44:00.503Z,34.54
2019-02-19T12:45:02.514Z,36.90
2019-02-19T12:46:00.476Z,36.22
2019-02-19T12:47:00.476Z,36.76
2019-02-19T12:48:00.451Z,37.06
2019-02-19T12:49:00.444Z,36.00
2019-02-19T12:50:03.253Z,34.56
2019-02-19T12:51:00.425Z,33.36
2019-02-19T12:52:00.411Z,34.41